createdAt,value
2018-06-07T00:01:58.087Z,16.13
2018-06-07T00:04:26.520Z,14.87
2018-06-07T00:06:54.905Z,16.10
2018-06-07T00:09:23.314Z,16.73
2018-06-07T00:11:51.838Z,16.00
2018-06-07T00:14:20.254Z,15.50
2018-06-07T00:16:48.645Z,15.37
2018-06-07T00:19:17.182Z,16.57
2018-06-07T00:21:45.554Z,17.70
2018-06-07T00:24:13.941Z,16.13
2018-06-07T00:26:42.358Z,15.30
2018-06-07T00:29:10.765Z,15.07
2018-06-07T00:31:39.172Z,16.50
2018-06-07T00:34:07.563Z,17.13
2018-06-07T00:36:36.112Z,16.33
2018-06-07T00:39:06.911Z,15.10
2018-06-07T00:41:35.335Z,17.40
2018-06-07T00:44:03.807Z,16.00
2018-06-07T00:46:32.215Z,17.20
2018-06-07T00:49:00.627Z,15.27
2018-06-07T00:51:29.047Z,15.70
2018-06-07T00:53:57.469Z,17.27
2018-06-07T00:56:36.951Z,16.23
2018-06-07T00:59:05.413Z,16.43
2018-06-07T01:01:33.849Z,16.60
2018-06-07T01:04:02.327Z,15.67
2018-06-07T01:06:30.763Z,15.40
2018-06-07T01:08:59.145Z,16.23
2018-06-07T01:11:27.562Z,16.20
2018-06-07T01:13:55.946Z,17.27
2018-06-07T01:16:24.339Z,17.50
2018-06-07T01:18:52.785Z,16.93
2018-06-07T01:21:21.222Z,16.33
2018-06-07T01:23:49.784Z,16.43
2018-06-07T01:26:18.191Z,16.83
2018-06-07T01:28:46.581Z,17.27
2018-06-07T01:31:20.463Z,16.77
2018-06-07T01:33:49.312Z,17.40
2018-06-07T01:36:18.464Z,16.20
2018-06-07T01:38:58.226Z,16.80
2018-06-07T01:41:26.570Z,16.87
2018-06-07T01:43:54.958Z,16.77
2018-06-07T01:46:23.297Z,17.33
2018-06-07T01:48:51.664Z,16.60
2018-06-07T01:51:19.994Z,17.03
2018-06-07T01:53:48.397Z,16.33
2018-06-07T01:56:17.022Z,16.87
2018-06-07T01:58:45.385Z,16.00
2018-06-07T02:01:13.745Z,17.27
2018-06-07T02:03:42.113Z,16.73
2018-06-07T02:06:10.448Z,15.20
2018-06-07T02:08:38.813Z,16.40
2018-06-07T02:11:07.210Z,18.23
2018-06-07T02:13:35.706Z,17.13
2018-06-07T02:16:04.133Z,17.30
2018-06-07T02:18:32.545Z,16.43
2018-06-07T02:21:00.928Z,17.23
2018-06-07T02:23:29.328Z,18.70
2018-06-07T02:25:57.697Z,17.60
2018-06-07T02:28:26.093Z,17.50
2018-06-07T02:30:54.433Z,18.50
2018-06-07T02:33:22.853Z,16.73
2018-06-07T02:35:51.230Z,18.67
2018-06-07T02:38:19.622Z,17.23
2018-06-07T02:40:48.003Z,16.50
2018-06-07T02:43:16.377Z,17.17
2018-06-07T02:45:44.773Z,17.03
2018-06-07T02:48:13.138Z,17.37
2018-06-07T02:50:41.530Z,17.07
2018-06-07T02:53:09.899Z,16.23
2018-06-07T02:55:38.319Z,17.60
2018-06-07T02:58:06.655Z,16.90
2018-06-07T03:00:35.039Z,16.50
2018-06-07T03:03:03.429Z,17.00
2018-06-07T03:05:31.834Z,16.50
2018-06-07T03:08:00.185Z,17.50
2018-06-07T03:10:28.623Z,18.00
2018-06-07T03:12:56.974Z,17.40
2018-06-07T03:15:25.414Z,17.43
2018-06-07T03:17:53.773Z,17.10
2018-06-07T03:20:22.386Z,18.23
2018-06-07T03:22:50.755Z,18.27
2018-06-07T03:25:19.151Z,18.77
2018-06-07T03:27:47.529Z,19.33
2018-06-07T03:30:15.930Z,18.80
2018-06-07T03:32:44.330Z,18.97
2018-06-07T03:35:12.722Z,20.00
2018-06-07T03:37:41.100Z,17.10
2018-06-07T03:40:09.470Z,19.37
2018-06-07T03:42:37.873Z,19.07
2018-06-07T03:45:06.226Z,19.83
2018-06-07T03:47:34.627Z,20.30
2018-06-07T03:50:02.993Z,21.30
2018-06-07T03:52:31.387Z,21.10
2018-06-07T03:54:59.743Z,19.20
2018-06-07T03:57:27.854Z,19.43
2018-06-07T03:59:56.219Z,18.97
2018-06-07T04:02:24.660Z,20.90
2018-06-07T04:04:52.990Z,21.00
2018-06-07T04:07:21.409Z,21.13
2018-06-07T04:09:49.769Z,20.60
2018-06-07T04:12:18.170Z,18.90
2018-06-07T04:14:46.512Z,20.17
2018-06-07T04:17:14.895Z,18.77
2018-06-07T04:19:43.234Z,19.17
2018-06-07T04:22:11.593Z,19.53
2018-06-07T04:24:39.934Z,18.33
2018-06-07T04:27:08.306Z,20.20
2018-06-07T04:29:36.633Z,20.33
2018-06-07T04:32:05.038Z,20.80
2018-06-07T04:34:33.334Z,21.30
2018-06-07T04:37:01.709Z,23.07
2018-06-07T04:39:30.042Z,22.33
2018-06-07T04:41:58.385Z,23.77
2018-06-07T04:44:26.745Z,23.20
2018-06-07T04:46:55.086Z,23.47
2018-06-07T04:49:23.469Z,24.07
2018-06-07T04:51:51.808Z,24.07
2018-06-07T04:54:20.193Z,24.97
2018-06-07T04:56:48.533Z,23.10
2018-06-07T04:59:16.912Z,22.27
2018-06-07T05:01:45.290Z,23.47
2018-06-07T05:04:13.658Z,22.90
2018-06-07T05:06:42.089Z,23.57
2018-06-07T05:09:10.434Z,22.60
2018-06-07T05:11:38.782Z,25.77
2018-06-07T05:14:07.162Z,23.93
2018-06-07T05:16:35.504Z,23.90
2018-06-07T05:19:03.873Z,23.77
2018-06-07T05:21:32.217Z,25.33
2018-06-07T05:24:00.577Z,22.37
2018-06-07T05:26:28.936Z,23.80
2018-06-07T05:28:57.294Z,23.40
2018-06-07T05:31:25.640Z,22.73
2018-06-07T05:33:54.066Z,24.40
2018-06-07T05:36:22.405Z,23.10
2018-06-07T05:38:50.809Z,23.80
2018-06-07T05:41:19.199Z,25.53
2018-06-07T05:43:47.565Z,25.93
2018-06-07T05:46:15.996Z,24.80
2018-06-07T05:48:44.317Z,24.80
2018-06-07T05:51:12.711Z,22.30
2018-06-07T05:53:41.036Z,29.47
2018-06-07T05:56:09.430Z,32.80
2018-06-07T05:58:37.785Z,23.77
2018-06-07T06:01:06.162Z,24.17
2018-06-07T06:03:34.520Z,22.33
2018-06-07T06:06:02.881Z,21.63
2018-06-07T06:08:31.214Z,22.83
2018-06-07T06:10:59.614Z,21.50
2018-06-07T06:13:27.941Z,22.53
2018-06-07T06:15:56.329Z,21.47
2018-06-07T06:18:24.671Z,22.03
2018-06-07T06:20:53.070Z,19.10
2018-06-07T06:23:21.428Z,17.37
2018-06-07T06:25:49.796Z,17.83
2018-06-07T06:28:18.141Z,17.83
2018-06-07T06:30:46.518Z,18.07
2018-06-07T06:33:14.842Z,18.37
2018-06-07T06:35:43.215Z,19.10
2018-06-07T06:38:46.321Z,20.30
2018-06-07T06:41:14.728Z,19.87
2018-06-07T06:43:43.076Z,18.77
2018-06-07T06:46:11.515Z,18.03
2018-06-07T06:48:39.878Z,19.77
2018-06-07T06:51:08.217Z,17.10
2018-06-07T06:53:36.603Z,17.90
2018-06-07T06:56:04.982Z,17.93
2018-06-07T06:58:33.356Z,17.63
2018-06-07T07:01:01.661Z,17.87
2018-06-07T07:03:30.091Z,19.70
2018-06-07T07:05:58.455Z,19.00
2018-06-07T07:08:26.835Z,18.87
2018-06-07T07:10:55.236Z,18.20
2018-06-07T07:13:23.638Z,18.60
2018-06-07T07:15:52.016Z,19.63
2018-06-07T07:18:20.417Z,17.90
2018-06-07T07:20:48.789Z,18.63
2018-06-07T07:23:17.200Z,19.93
2018-06-07T07:25:45.549Z,19.20
2018-06-07T07:28:13.946Z,20.07
2018-06-07T07:30:42.310Z,19.60
2018-06-07T07:33:10.707Z,18.70
2018-06-07T07:35:39.074Z,18.57
2018-06-07T07:38:07.477Z,19.37
2018-06-07T07:40:35.841Z,19.87
2018-06-07T07:43:04.245Z,20.07
2018-06-07T07:45:32.606Z,18.90
2018-06-07T07:48:00.958Z,18.77
2018-06-07T07:50:29.355Z,18.37
2018-06-07T07:52:57.712Z,17.97
2018-06-07T07:55:26.115Z,19.57
2018-06-07T07:57:54.547Z,19.40
2018-06-07T08:00:22.990Z,18.63
2018-06-07T08:02:51.332Z,19.50
2018-06-07T08:05:19.710Z,18.60
2018-06-07T08:07:48.056Z,17.07
2018-06-07T08:10:16.453Z,17.40
2018-06-07T08:12:44.834Z,19.07
2018-06-07T08:15:13.213Z,19.63
2018-06-07T08:17:41.546Z,18.23
2018-06-07T08:20:09.913Z,18.57
2018-06-07T08:22:38.242Z,19.23
2018-06-07T08:25:06.615Z,17.93
2018-06-07T08:27:34.978Z,18.70
2018-06-07T08:30:03.359Z,18.90
2018-06-07T08:32:31.681Z,16.67
2018-06-07T08:35:00.048Z,18.57
2018-06-07T08:37:28.418Z,18.70
2018-06-07T08:39:56.823Z,18.13
2018-06-07T08:42:25.153Z,18.07
2018-06-07T08:44:53.525Z,18.37
2018-06-07T08:47:21.854Z,19.93
2018-06-07T08:49:50.197Z,19.20
2018-06-07T08:52:18.578Z,19.70
2018-06-07T08:54:48.830Z,18.80
2018-06-07T08:57:17.986Z,18.20
2018-06-07T08:59:46.318Z,19.90
2018-06-07T09:02:14.677Z,20.93
2018-06-07T09:04:43.001Z,18.13
2018-06-07T09:07:11.366Z,18.50
2018-06-07T09:09:39.719Z,19.90
2018-06-07T09:12:08.154Z,20.17
2018-06-07T09:14:36.486Z,19.57
2018-06-07T09:17:04.859Z,19.37
2018-06-07T09:19:33.203Z,19.90
2018-06-07T09:22:01.579Z,19.07
2018-06-07T09:24:29.905Z,20.68
2018-06-07T09:26:58.281Z,19.90
2018-06-07T09:29:26.634Z,19.75
2018-06-07T09:31:55.007Z,19.17
2018-06-07T09:34:23.360Z,18.40
2018-06-07T09:36:51.719Z,21.45
2018-06-07T09:39:20.058Z,20.30
2018-06-07T09:41:48.435Z,20.15
2018-06-07T09:44:16.783Z,23.47
2018-06-07T09:46:45.150Z,23.12
2018-06-07T09:49:13.487Z,21.77
2018-06-07T09:51:41.830Z,20.90
2018-06-07T09:54:10.184Z,22.27
2018-06-07T09:56:38.512Z,22.13
2018-06-07T09:59:06.905Z,21.60
2018-06-07T10:01:35.242Z,19.90
2018-06-07T10:04:03.627Z,21.90
2018-06-07T10:06:31.958Z,20.00
2018-06-07T10:09:00.326Z,21.60
2018-06-07T10:11:28.677Z,22.17
2018-06-07T10:13:57.133Z,23.30
2018-06-07T10:16:25.488Z,22.77
2018-06-07T10:18:53.884Z,23.73
2018-06-07T10:21:22.251Z,22.83
2018-06-07T10:23:50.639Z,22.57
2018-06-07T10:26:18.997Z,21.00
2018-06-07T10:28:47.395Z,22.40
2018-06-07T10:31:15.754Z,22.10
2018-06-07T10:33:44.150Z,23.03
2018-06-07T10:36:12.498Z,24.37
2018-06-07T10:38:40.965Z,20.77
2018-06-07T10:41:09.319Z,23.73
2018-06-07T10:43:37.721Z,21.90
2018-06-07T10:46:06.088Z,23.53
2018-06-07T10:48:34.459Z,21.27
2018-06-07T10:51:02.854Z,22.37
2018-06-07T10:53:31.215Z,22.90
2018-06-07T10:55:59.613Z,23.50
2018-06-07T10:58:28.014Z,21.03
2018-06-07T11:00:56.403Z,21.80
2018-06-07T11:03:24.754Z,22.73
2018-06-07T11:05:53.150Z,23.67
2018-06-07T11:08:21.503Z,22.20
2018-06-07T11:10:49.899Z,23.23
2018-06-07T11:13:18.273Z,21.00
2018-06-07T11:15:46.663Z,28.03
2018-06-07T11:18:14.996Z,30.50
2018-06-07T11:20:43.361Z,18.83
2018-06-07T11:23:11.721Z,20.30
2018-06-07T11:25:40.090Z,20.57
2018-06-07T11:28:08.431Z,19.07
2018-06-07T11:30:36.810Z,21.73
2018-06-07T11:33:05.141Z,20.57
2018-06-07T11:35:33.510Z,20.07
2018-06-07T11:38:01.861Z,18.83
2018-06-07T11:40:30.243Z,19.93
2018-06-07T11:42:58.604Z,17.70
2018-06-07T11:45:26.973Z,19.53
2018-06-07T11:47:56.186Z,17.67
2018-06-07T11:50:24.525Z,19.70
2018-06-07T11:52:52.886Z,18.27
2018-06-07T11:55:21.241Z,18.53
2018-06-07T11:57:49.617Z,17.93
2018-06-07T12:00:17.957Z,16.77
2018-06-07T12:02:46.326Z,15.97
2018-06-07T12:05:14.683Z,16.40
2018-06-07T12:07:43.055Z,16.77
2018-06-07T12:10:11.377Z,15.97
2018-06-07T12:12:39.752Z,15.63
2018-06-07T12:15:08.128Z,15.73
2018-06-07T12:17:36.530Z,15.20
2018-06-07T12:20:04.913Z,15.47
2018-06-07T12:22:33.298Z,14.63
2018-06-07T12:25:01.679Z,14.10
2018-06-07T12:27:30.092Z,12.40
2018-06-07T12:29:58.472Z,13.20
2018-06-07T12:32:26.850Z,14.00
2018-06-07T12:34:55.202Z,15.60
2018-06-07T12:37:23.601Z,13.30
2018-06-07T12:39:52.035Z,13.80
2018-06-07T12:42:20.372Z,16.30
2018-06-07T12:44:48.741Z,13.80
2018-06-07T12:47:17.168Z,12.23
2018-06-07T12:49:45.536Z,12.30
2018-06-07T12:52:13.907Z,12.10
2018-06-07T12:54:42.304Z,9.70
2018-06-07T12:57:10.645Z,9.60
2018-06-07T12:59:39.050Z,9.03
2018-06-07T13:02:07.114Z,8.47
2018-06-07T13:04:35.494Z,8.60
2018-06-07T13:07:03.858Z,9.60
2018-06-07T13:09:32.231Z,8.93
2018-06-07T13:12:00.622Z,10.10
2018-06-07T13:14:29.037Z,9.57
2018-06-07T13:16:57.417Z,9.27
2018-06-07T13:19:25.817Z,10.10
2018-06-07T13:21:54.200Z,14.90
2018-06-07T13:24:22.593Z,10.73
2018-06-07T13:26:50.958Z,10.47
2018-06-07T13:29:19.363Z,11.57
2018-06-07T13:31:47.711Z,10.70
2018-06-07T13:34:16.105Z,10.80
2018-06-07T13:36:44.459Z,10.90
2018-06-07T13:39:12.849Z,10.70
2018-06-07T13:41:41.218Z,10.60
2018-06-07T13:44:09.597Z,10.70
2018-06-07T13:46:37.963Z,11.60
2018-06-07T13:49:06.347Z,11.80
2018-06-07T13:51:34.755Z,14.00
2018-06-07T13:54:03.134Z,14.93
2018-06-07T13:56:31.531Z,14.20
2018-06-07T13:58:59.891Z,14.33
2018-06-07T14:01:28.296Z,15.40
2018-06-07T14:03:56.665Z,13.57
2018-06-07T14:06:25.093Z,17.77
2018-06-07T14:08:53.468Z,35.07
2018-06-07T14:11:21.857Z,18.90
2018-06-07T14:13:50.215Z,14.67
2018-06-07T14:16:18.568Z,13.60
2018-06-07T14:18:46.909Z,14.63
2018-06-07T14:21:15.262Z,14.20
2018-06-07T14:23:43.310Z,13.70
2018-06-07T14:26:11.686Z,13.43
2018-06-07T14:28:40.010Z,14.37
2018-06-07T14:31:08.390Z,16.67
2018-06-07T14:33:36.721Z,16.20
2018-06-07T14:36:05.122Z,14.30
2018-06-07T14:38:33.449Z,14.60
2018-06-07T14:41:01.816Z,14.00
2018-06-07T14:43:30.154Z,14.63
2018-06-07T14:45:58.498Z,14.77
2018-06-07T14:48:26.877Z,14.30
2018-06-07T14:50:55.211Z,15.20
2018-06-07T14:53:23.609Z,15.70
2018-06-07T14:55:51.942Z,13.77
2018-06-07T14:58:20.318Z,12.30
2018-06-07T15:00:48.662Z,11.47
2018-06-07T15:03:17.026Z,11.00
2018-06-07T15:05:45.356Z,22.23
2018-06-07T15:08:13.717Z,18.97
2018-06-07T15:10:42.057Z,13.00
2018-06-07T15:13:10.430Z,13.43
2018-06-07T15:15:38.792Z,13.30
2018-06-07T15:18:07.199Z,13.77
2018-06-07T15:20:35.555Z,13.57
2018-06-07T15:23:03.966Z,14.30
2018-06-07T15:25:32.355Z,14.47
2018-06-07T15:28:00.768Z,13.10
2018-06-07T15:30:29.150Z,11.80
2018-06-07T15:32:57.537Z,12.63
2018-06-07T15:35:25.893Z,12.87
2018-06-07T15:37:54.299Z,11.63
2018-06-07T15:40:22.655Z,12.60
2018-06-07T15:42:51.046Z,12.60
2018-06-07T15:45:19.415Z,11.67
2018-06-07T15:47:47.776Z,11.70
2018-06-07T15:50:16.154Z,12.67
2018-06-07T15:52:44.526Z,11.43
2018-06-07T15:55:12.913Z,12.13
2018-06-07T15:57:41.265Z,10.80
2018-06-07T16:00:09.689Z,11.43
2018-06-07T16:02:38.045Z,11.03
2018-06-07T16:05:06.706Z,12.10
2018-06-07T16:07:35.086Z,19.17
2018-06-07T16:10:03.537Z,15.10
2018-06-07T16:12:31.902Z,10.67
2018-06-07T16:15:00.341Z,10.77
2018-06-07T16:17:28.697Z,10.60
2018-06-07T16:19:57.086Z,12.00
2018-06-07T16:22:25.435Z,11.60
2018-06-07T16:24:53.816Z,12.30
2018-06-07T16:27:22.182Z,12.83
2018-06-07T16:29:50.695Z,12.80
2018-06-07T16:32:31.622Z,13.50
2018-06-07T16:35:06.934Z,12.90
2018-06-07T16:37:35.947Z,13.23
2018-06-07T16:40:07.530Z,14.10
2018-06-07T16:42:36.398Z,13.40
2018-06-07T16:45:05.102Z,13.47
2018-06-07T16:47:33.458Z,13.87
2018-06-07T16:50:01.866Z,14.57
2018-06-07T16:52:30.224Z,13.90
2018-06-07T16:54:58.589Z,15.10
2018-06-07T16:57:26.978Z,13.00
2018-06-07T16:59:55.344Z,12.40
2018-06-07T17:02:23.737Z,14.60
2018-06-07T17:04:52.090Z,13.30
2018-06-07T17:07:20.502Z,13.80
2018-06-07T17:09:48.878Z,14.47
2018-06-07T17:12:17.266Z,15.33
2018-06-07T17:14:45.645Z,15.17
2018-06-07T17:17:14.042Z,25.20
2018-06-07T17:19:42.402Z,18.33
2018-06-07T17:22:10.769Z,14.20
2018-06-07T17:24:39.154Z,13.50
2018-06-07T17:27:07.583Z,15.70
2018-06-07T17:29:35.941Z,15.90
2018-06-07T17:32:04.365Z,15.30
2018-06-07T17:34:32.766Z,14.37
2018-06-07T17:37:01.170Z,14.73
2018-06-07T17:39:29.564Z,15.03
2018-06-07T17:41:58.016Z,17.17
2018-06-07T17:44:26.443Z,14.93
2018-06-07T17:46:54.841Z,16.53
2018-06-07T17:49:23.185Z,16.90
2018-06-07T17:51:51.615Z,14.57
2018-06-07T17:54:19.951Z,17.30
2018-06-07T17:56:48.297Z,16.63
2018-06-07T17:59:16.725Z,15.80
2018-06-07T18:01:45.105Z,17.10
2018-06-07T18:04:13.490Z,16.90
2018-06-07T18:06:41.829Z,18.83
2018-06-07T18:09:10.263Z,18.87
2018-06-07T18:11:38.621Z,17.60
2018-06-07T18:14:07.062Z,17.10
2018-06-07T18:16:35.495Z,18.87
2018-06-07T18:19:03.910Z,19.10
2018-06-07T18:21:32.416Z,18.87
2018-06-07T18:24:01.067Z,18.00
2018-06-07T18:26:29.557Z,18.97
2018-06-07T18:28:58.030Z,35.47
2018-06-07T18:31:26.711Z,42.50
2018-06-07T18:33:55.600Z,23.57
2018-06-07T18:36:24.070Z,16.23
2018-06-07T18:38:52.465Z,17.13
2018-06-07T18:41:20.966Z,16.30
2018-06-07T18:43:49.658Z,16.10
2018-06-07T18:46:17.989Z,16.00
2018-06-07T18:48:46.441Z,15.20
2018-06-07T18:51:14.772Z,15.00
2018-06-07T18:53:43.131Z,16.23
2018-06-07T18:56:11.499Z,17.47
2018-06-07T18:58:39.838Z,16.10
2018-06-07T19:01:08.200Z,15.87
2018-06-07T19:03:36.545Z,15.73
2018-06-07T19:06:05.055Z,15.40
2018-06-07T19:08:39.061Z,15.67
2018-06-07T19:11:07.622Z,16.43
2018-06-07T19:13:41.278Z,15.60
2018-06-07T19:16:09.693Z,16.00
2018-06-07T19:18:38.038Z,15.10
2018-06-07T19:21:06.562Z,18.43
2018-06-07T19:23:34.916Z,15.90
2018-06-07T19:26:09.758Z,17.20
2018-06-07T19:28:38.093Z,29.63
2018-06-07T19:31:06.457Z,25.40
2018-06-07T19:33:40.329Z,26.60
2018-06-07T19:36:08.749Z,23.30
2018-06-07T19:38:41.382Z,18.07
2018-06-07T19:41:15.209Z,18.10
2018-06-07T19:43:43.606Z,17.77
2018-06-07T19:46:11.990Z,17.83
2018-06-07T19:48:40.403Z,17.87
2018-06-07T19:51:08.766Z,17.10
2018-06-07T19:53:37.152Z,16.27
2018-06-07T19:56:05.540Z,32.80
2018-06-07T19:58:33.933Z,31.73
2018-06-07T20:01:02.294Z,18.57
2018-06-07T20:03:30.371Z,20.10
2018-06-07T20:05:58.749Z,18.77
2018-06-07T20:08:27.098Z,18.90
2018-06-07T20:10:55.489Z,19.53
2018-06-07T20:13:23.829Z,19.03
2018-06-07T20:15:52.257Z,18.40
2018-06-07T20:18:20.613Z,17.27
2018-06-07T20:20:49.013Z,17.10
2018-06-07T20:23:17.365Z,19.53
2018-06-07T20:25:45.958Z,19.73
2018-06-07T20:28:14.331Z,18.50
2018-06-07T20:30:42.729Z,19.37
2018-06-07T20:33:11.089Z,18.80
2018-06-07T20:35:39.529Z,20.03
2018-06-07T20:38:07.890Z,18.20
2018-06-07T20:40:36.281Z,19.10
2018-06-07T20:43:04.677Z,18.83
2018-06-07T20:45:33.049Z,18.00
2018-06-07T20:48:01.401Z,18.50
2018-06-07T20:50:29.792Z,20.63
2018-06-07T20:52:58.151Z,18.33
2018-06-07T20:55:26.506Z,19.00
2018-06-07T20:57:54.888Z,18.70
2018-06-07T21:00:23.235Z,28.10
2018-06-07T21:02:51.634Z,24.57
2018-06-07T21:05:19.982Z,19.27
2018-06-07T21:07:48.434Z,18.43
2018-06-07T21:10:16.786Z,19.07
2018-06-07T21:12:45.181Z,18.40
2018-06-07T21:15:13.526Z,20.00
2018-06-07T21:17:41.885Z,19.33
2018-06-07T21:20:10.214Z,20.20
2018-06-07T21:22:38.599Z,20.17
2018-06-07T21:25:06.922Z,24.50
2018-06-07T21:27:35.306Z,30.47
2018-06-07T21:30:03.658Z,22.10
2018-06-07T21:32:37.690Z,20.87
2018-06-07T21:35:06.051Z,20.57
2018-06-07T21:37:34.465Z,20.47
2018-06-07T21:40:02.808Z,19.57
2018-06-07T21:42:31.170Z,21.30
2018-06-07T21:44:59.508Z,19.63
2018-06-07T21:47:27.870Z,20.97
2018-06-07T21:49:56.199Z,21.30
2018-06-07T21:52:24.565Z,21.47
2018-06-07T21:54:52.890Z,20.30
2018-06-07T21:57:21.251Z,19.90
2018-06-07T21:59:49.593Z,21.20
2018-06-07T22:02:17.937Z,20.33
2018-06-07T22:04:46.317Z,21.67
2018-06-07T22:07:14.629Z,21.30
2018-06-07T22:09:43.001Z,26.83
2018-06-07T22:12:11.326Z,54.20
2018-06-07T22:14:39.437Z,26.07
2018-06-07T22:17:07.827Z,22.57
2018-06-07T22:19:36.213Z,22.53
2018-06-07T22:22:04.609Z,23.10
2018-06-07T22:24:32.992Z,23.60
2018-06-07T22:27:01.338Z,22.83
2018-06-07T22:29:29.717Z,20.70
2018-06-07T22:31:58.074Z,21.47
2018-06-07T22:34:26.469Z,20.67
2018-06-07T22:36:54.851Z,20.80
2018-06-07T22:39:23.268Z,21.33
2018-06-07T22:41:51.578Z,20.40
2018-06-07T22:44:19.973Z,20.07
2018-06-07T22:46:48.327Z,20.90
2018-06-07T22:49:16.702Z,21.60
2018-06-07T22:51:45.085Z,20.67
2018-06-07T22:54:13.485Z,22.23
2018-06-07T22:56:41.886Z,20.73
2018-06-07T22:59:10.258Z,22.60
2018-06-07T23:01:38.380Z,22.80
2018-06-07T23:04:06.730Z,22.77
2018-06-07T23:06:34.841Z,21.20
2018-06-07T23:09:03.385Z,21.97
2018-06-07T23:11:31.774Z,24.07
2018-06-07T23:14:00.126Z,23.10
2018-06-07T23:16:28.530Z,23.00
2018-06-07T23:18:56.910Z,21.90
2018-06-07T23:21:25.274Z,21.00
2018-06-07T23:23:53.609Z,22.00
2018-06-07T23:26:21.976Z,23.57
2018-06-07T23:28:50.277Z,23.40
2018-06-07T23:31:18.636Z,22.70
2018-06-07T23:33:46.955Z,22.30
2018-06-07T23:36:15.362Z,24.00
2018-06-07T23:38:43.689Z,23.27
2018-06-07T23:41:12.058Z,23.73
2018-06-07T23:43:40.397Z,23.67
2018-06-07T23:46:08.763Z,22.57
2018-06-07T23:48:37.093Z,22.37
2018-06-07T23:51:05.461Z,22.77
2018-06-07T23:53:33.798Z,24.20
2018-06-07T23:56:02.182Z,25.00
2018-06-07T23:58:30.518Z,26.43
